Time;durP1;ratioP1;P1;durP2;ratioP2;P2;SDS_P1;SDS_P2;PMS_P1;PMS_P2;Temp;Humidity;BMP_temperature;BMP_pressure;BME280_temperature;BME280_humidity;BME280_pressure;Samples;Min_cycle;Max_cycle;Signal;HPM_P1;HPM_P2
2023/09/15 00:03:15;;;;;;;;;;;;;;;23.49;51.69;95963.53;10287915;28;1965;-68
2023/09/15 00:08:16;;;;;;;;;;;;;;;23.49;51.55;95957.44;10290729;28;2012;-68
2023/09/15 00:13:17;;;;;;;;;;;;;;;23.49;51.64;95958.22;10289421;28;1928;-68
2023/09/15 00:18:20;;;;;;;;;;;;;;;23.48;51.42;95951.34;10290988;28;1784;-68
2023/09/15 00:23:20;;;;;;;;;;;;;;;23.47;51.52;95946.34;10295505;28;1908;-67
2023/09/15 00:28:21;;;;;;;;;;;;;;;23.46;51.49;95948.22;10294497;28;2890;-67
2023/09/15 00:33:21;;;;;;;;;;;;;;;23.47;51.72;95954.28;10290254;28;1945;-68
2023/09/15 00:38:21;;;;;;;;;;;;;;;23.45;51.45;95944.78;10294478;28;1872;-68
2023/09/15 00:43:22;;;;;;;;;;;;;;;23.44;51.47;95937.13;10274282;28;4696;-67
2023/09/15 00:48:22;;;;;;;;;;;;;;;23.43;51.41;95941.63;10299331;28;2571;-68
2023/09/15 00:53:22;;;;;;;;;;;;;;;23.42;51.37;95945.34;10282767;28;1858;-67
2023/09/15 00:58:23;;;;;;;;;;;;;;;23.41;51.17;95938.47;10303299;28;2002;-68
2023/09/15 01:03:24;;;;;;;;;;;;;;;23.41;51.39;95941.13;10283212;28;1972;-68
2023/09/15 01:08:24;;;;;;;;;;;;;;;23.40;51.49;95928.19;10317842;28;1890;-67
2023/09/15 01:13:25;;;;;;;;;;;;;;;23.39;51.47;95929.25;10302901;28;2845;-68
2023/09/15 01:18:26;;;;;;;;;;;;;;;23.39;51.27;95923.97;10318261;28;1902;-68
2023/09/15 01:23:47;;;;;;;;;;;;;;;23.38;51.35;95925.84;10297968;28;1910;-67
2023/09/15 01:28:50;;;;;;;;;;;;;;;23.38;51.19;95923.19;10300542;28;1902;-67
2023/09/15 01:33:51;;;;;;;;;;;;;;;23.37;51.18;95918.19;10319340;28;2032;-67
2023/09/15 01:38:51;;;;;;;;;;;;;;;23.36;51.08;95922.69;10314276;28;2025;-68
2023/09/15 01:43:53;;;;;;;;;;;;;;;23.34;51.30;95918.75;10312565;28;4739;-68
2023/09/15 01:48:53;;;;;;;;;;;;;;;23.33;51.17;95917.19;10301946;28;2037;-68
2023/09/15 01:53:53;;;;;;;;;;;;;;;23.34;51.24;95921.41;10302619;28;1867;-68
2023/09/15 01:58:54;;;;;;;;;;;;;;;23.32;50.97;95921.69;10299404;28;2811;-67
2023/09/15 02:03:54;;;;;;;;;;;;;;;23.32;51.09;95915.63;10295652;28;2037;-68
2023/09/15 02:08:54;;;;;;;;;;;;;;;23.31;50.98;95917.44;10312693;28;1920;-68
2023/09/15 02:13:55;;;;;;;;;;;;;;;23.32;51.10;95915.63;10315466;28;1910;-67
2023/09/15 02:18:55;;;;;;;;;;;;;;;23.30;50.98;95909.81;10311627;28;1890;-68
2023/09/15 02:23:55;;;;;;;;;;;;;;;23.30;51.11;95907.16;10313539;28;1910;-67
2023/09/15 02:28:55;;;;;;;;;;;;;;;23.28;50.98;95898.72;10301339;28;1987;-67
2023/09/15 02:33:59;;;;;;;;;;;;;;;23.27;50.75;95907.72;10294997;28;1990;-68
2023/09/15 02:38:59;;;;;;;;;;;;;;;23.26;50.92;95901.66;10298032;28;1883;-68
2023/09/15 02:44:00;;;;;;;;;;;;;;;23.27;51.06;95897.13;10312224;28;4830;-67
2023/09/15 02:49:01;;;;;;;;;;;;;;;23.25;50.96;95902.72;10297200;28;1824;-68
2023/09/15 02:54:03;;;;;;;;;;;;;;;23.24;51.12;95893.22;10267233;28;1946;-68
2023/09/15 02:59:03;;;;;;;;;;;;;;;23.23;50.90;95893.50;10295271;28;1968;-68
2023/09/15 03:04:04;;;;;;;;;;;;;;;23.24;50.68;95897.72;10313850;28;1845;-67
2023/09/15 03:09:05;;;;;;;;;;;;;;;23.22;50.78;95898.00;10313887;28;1901;-67
2023/09/15 03:14:09;;;;;;;;;;;;;;;23.21;50.93;95896.44;10317002;28;1861;-68
2023/09/15 03:19:09;;;;;;;;;;;;;;;23.21;50.68;95890.34;10261218;28;1969;-67
2023/09/15 03:24:09;;;;;;;;;;;;;;;23.19;50.62;95893.28;10314541;28;1895;-67
2023/09/15 03:29:09;;;;;;;;;;;;;;;23.19;50.90;95895.13;10295805;28;2834;-68
2023/09/15 03:34:10;;;;;;;;;;;;;;;23.18;50.86;95886.44;10316116;28;1954;-68
2023/09/15 03:39:10;;;;;;;;;;;;;;;23.18;51.02;95885.66;10315093;28;1970;-68
2023/09/15 03:44:10;;;;;;;;;;;;;;;23.17;51.00;95892.00;10314965;28;4647;-68
2023/09/15 03:49:11;;;;;;;;;;;;;;;23.16;51.00;95887.78;10298090;28;1893;-68
2023/09/15 03:54:11;;;;;;;;;;;;;;;23.10;50.89;95886.28;10311294;28;1895;-68
2023/09/15 03:59:11;;;;;;;;;;;;;;;23.05;50.89;95883.72;10295454;28;1996;-68
2023/09/15 04:04:11;;;;;;;;;;;;;;;23.06;51.06;95880.78;10290841;28;1922;-68
2023/09/15 04:09:15;;;;;;;;;;;;;;;23.00;51.18;95881.16;10277954;28;2102;-67
2023/09/15 04:14:15;;;;;;;;;;;;;;;22.99;51.05;95874.28;10290569;28;1953;-68
2023/09/15 04:19:15;;;;;;;;;;;;;;;22.99;51.08;95869.78;10299199;28;1903;-68
2023/09/15 04:24:15;;;;;;;;;;;;;;;22.97;51.20;95877.22;10288117;28;2058;-68
2023/09/15 04:29:16;;;;;;;;;;;;;;;22.95;51.26;95883.84;10302299;28;2612;-68
2023/09/15 04:34:16;;;;;;;;;;;;;;;22.90;51.28;95871.47;10321588;28;1953;-68
2023/09/15 04:39:16;;;;;;;;;;;;;;;22.95;51.52;95882.00;10308046;28;1995;-68
2023/09/15 04:44:16;;;;;;;;;;;;;;;22.97;51.27;95879.06;10311081;28;4695;-67
2023/09/15 04:49:17;;;;;;;;;;;;;;;22.98;51.47;95878.00;10309134;28;1939;-68
2023/09/15 04:54:19;;;;;;;;;;;;;;;23.00;51.18;95875.88;10307037;28;1971;-67
2023/09/15 04:59:20;;;;;;;;;;;;;;;22.99;51.40;95875.06;10311642;28;1948;-67
2023/09/15 05:04:20;;;;;;;;;;;;;;;23.00;51.41;95876.63;10306395;28;1995;-68
2023/09/15 05:09:21;;;;;;;;;;;;;;;22.98;51.14;95867.44;10306771;28;1861;-68
2023/09/15 05:14:22;;;;;;;;;;;;;;;22.99;51.32;95869.00;10323291;28;2843;-67
2023/09/15 05:19:23;;;;;;;;;;;;;;;23.01;51.28;95872.13;10289626;28;2051;-68
2023/09/15 05:24:23;;;;;;;;;;;;;;;23.02;51.39;95876.38;10303617;28;1926;-68
2023/09/15 05:29:24;;;;;;;;;;;;;;;23.04;51.20;95882.16;10306153;28;2036;-67
2023/09/15 05:34:25;;;;;;;;;;;;;;;23.00;51.22;95887.19;10308433;28;1986;-68
2023/09/15 05:39:25;;;;;;;;;;;;;;;23.01;51.46;95888.00;10322100;28;1898;-67
2023/09/15 05:44:26;;;;;;;;;;;;;;;22.97;51.43;95884.34;10315756;28;4611;-67
2023/09/15 05:49:26;;;;;;;;;;;;;;;22.96;51.57;95880.13;10313340;28;1930;-68
2023/09/15 05:54:26;;;;;;;;;;;;;;;22.94;51.66;95883.06;10298100;28;1943;-68
2023/09/15 05:59:28;;;;;;;;;;;;;;;22.94;51.81;95885.69;10320722;28;2681;-71
2023/09/15 06:04:28;;;;;;;;;;;;;;;22.94;51.72;95882.25;10296526;28;2048;-69
2023/09/15 06:09:29;;;;;;;;;;;;;;;22.94;51.90;95876.97;10316255;28;1925;-71
2023/09/15 06:14:29;;;;;;;;;;;;;;;22.92;52.49;95876.47;10283736;28;1855;-72
2023/09/15 06:19:29;;;;;;;;;;;;;;;22.91;52.29;95869.63;10297306;28;1970;-72
2023/09/15 06:24:30;;;;;;;;;;;;;;;22.88;52.13;95872.84;10299806;28;1972;-71
2023/09/15 06:29:30;;;;;;;;;;;;;;;22.77;52.15;95872.22;10308729;28;1989;-70
2023/09/15 06:34:30;;;;;;;;;;;;;;;22.76;52.39;95872.47;10313587;28;1906;-71
2023/09/15 06:39:31;;;;;;;;;;;;;;;22.72;52.20;95884.69;10298618;28;1969;-71
2023/09/15 06:44:33;;;;;;;;;;;;;;;22.61;52.20;95876.09;10263530;28;4633;-71
2023/09/15 06:49:33;;;;;;;;;;;;;;;22.58;51.99;95872.19;10309031;28;2021;-71
2023/09/15 06:54:33;;;;;;;;;;;;;;;22.51;52.07;95874.34;10276582;28;2094;-71
2023/09/15 06:59:34;;;;;;;;;;;;;;;22.43;52.22;95879.44;10275588;28;1941;-72
2023/09/15 07:04:34;;;;;;;;;;;;;;;22.40;52.21;95888.72;10290447;28;2352;-71
2023/09/15 07:09:34;;;;;;;;;;;;;;;22.38;52.31;95887.44;10274261;28;1982;-71
2023/09/15 07:14:35;;;;;;;;;;;;;;;22.35;52.09;95886.16;10306491;28;1993;-72
2023/09/15 07:19:35;;;;;;;;;;;;;;;22.36;52.17;95885.06;10288293;28;2022;-75
2023/09/15 07:24:35;;;;;;;;;;;;;;;22.31;52.70;95881.69;10276274;28;1975;-71
2023/09/15 07:29:36;;;;;;;;;;;;;;;22.21;52.83;95873.91;10279857;28;2046;-71
2023/09/15 07:34:36;;;;;;;;;;;;;;;22.21;52.61;95882.59;10307938;28;1993;-71
2023/09/15 07:39:37;;;;;;;;;;;;;;;22.02;53.02;95876.47;10309070;28;1973;-71
2023/09/15 07:44:37;;;;;;;;;;;;;;;21.68;53.83;95886.22;10294385;28;4672;-72
2023/09/15 07:49:37;;;;;;;;;;;;;;;21.64;53.77;95882.56;10309840;28;1970;-71
2023/09/15 07:54:38;;;;;;;;;;;;;;;21.67;53.75;95895.22;10284523;28;1949;-71
2023/09/15 07:59:41;;;;;;;;;;;;;;;21.54;53.87;95899.28;10303355;28;1962;-72
2023/09/15 08:04:44;;;;;;;;;;;;;;;21.50;54.02;95902.75;10311046;28;1905;-72
2023/09/15 08:09:44;;;;;;;;;;;;;;;21.48;54.14;95897.75;10292211;28;2043;-72
2023/09/15 08:14:45;;;;;;;;;;;;;;;21.34;54.16;95890.72;10302598;28;1959;-73
2023/09/15 08:19:45;;;;;;;;;;;;;;;21.13;54.28;95895.34;10289634;28;2024;-74
2023/09/15 08:24:48;;;;;;;;;;;;;;;21.18;54.59;95894.53;10297770;28;1931;-77
2023/09/15 08:29:49;;;;;;;;;;;;;;;21.39;54.41;95898.63;10288556;28;2494;-75
2023/09/15 08:34:49;;;;;;;;;;;;;;;21.47;54.40;95887.47;10291244;28;2169;-75
2023/09/15 08:39:50;;;;;;;;;;;;;;;21.22;54.46;95887.66;10306799;28;2056;-75
2023/09/15 08:44:50;;;;;;;;;;;;;;;21.15;54.91;95895.06;10312179;28;1908;-76
2023/09/15 08:49:54;;;;;;;;;;;;;;;21.12;54.84;95883.25;10287197;28;1903;-76
2023/09/15 08:54:54;;;;;;;;;;;;;;;21.32;54.91;95887.59;10304188;28;1944;-72
2023/09/15 08:59:54;;;;;;;;;;;;;;;21.48;54.87;95874.00;10286561;28;1970;-72
2023/09/15 09:04:55;;;;;;;;;;;;;;;21.64;54.77;95885.22;10306046;28;1933;-71
2023/09/15 09:09:55;;;;;;;;;;;;;;;21.77;54.49;95874.81;10294803;28;2062;-70
2023/09/15 09:14:56;;;;;;;;;;;;;;;21.87;54.21;95887.16;10299136;28;2472;-71
2023/09/15 09:19:57;;;;;;;;;;;;;;;21.98;54.36;95883.38;10313722;28;2010;-71
2023/09/15 09:24:57;;;;;;;;;;;;;;;22.04;53.88;95890.16;10287117;28;1886;-71
2023/09/15 09:29:57;;;;;;;;;;;;;;;22.10;53.41;95878.50;10295951;28;1952;-70
2023/09/15 09:34:58;;;;;;;;;;;;;;;22.18;53.32;95885.00;10285506;28;1878;-70
2023/09/15 09:39:58;;;;;;;;;;;;;;;22.22;53.16;95881.53;10303108;28;4596;-71
2023/09/15 09:44:58;;;;;;;;;;;;;;;22.23;52.97;95887.59;10296617;28;1904;-71
2023/09/15 09:50:02;;;;;;;;;;;;;;;22.24;52.84;95879.38;10300472;28;1898;-70
2023/09/15 09:55:08;;;;;;;;;;;;;;;22.29;52.85;95876.72;10284714;28;2074;-71
2023/09/15 10:00:17;;;;;;;;;;;;;;;22.35;52.80;95869.50;10299833;28;2452;-70
2023/09/15 10:05:17;;;;;;;;;;;;;;;22.41;53.14;95857.81;10296717;28;1933;-71
2023/09/15 10:10:19;;;;;;;;;;;;;;;22.44;52.67;95852.75;10280626;28;1986;-71
2023/09/15 10:15:19;;;;;;;;;;;;;;;22.50;52.82;95856.91;10297808;28;2050;-71
2023/09/15 10:20:21;;;;;;;;;;;;;;;22.52;52.83;95852.13;10292627;28;1914;-70
2023/09/15 10:25:21;;;;;;;;;;;;;;;22.55;52.71;95853.41;10297014;28;1974;-71
2023/09/15 10:30:22;;;;;;;;;;;;;;;22.60;52.75;95851.53;10309133;28;1987;-70
2023/09/15 10:35:22;;;;;;;;;;;;;;;22.64;52.75;95847.25;10277183;28;2196;-70
2023/09/15 10:40:24;;;;;;;;;;;;;;;22.64;52.51;95844.63;10280293;28;4636;-70
2023/09/15 10:45:25;;;;;;;;;;;;;;;22.67;52.82;95839.84;10288614;28;2630;-71
2023/09/15 10:50:32;;;;;;;;;;;;;;;22.69;52.71;95832.41;10278342;28;1966;-70
2023/09/15 10:55:32;;;;;;;;;;;;;;;22.69;52.52;95827.13;10295829;28;1961;-71
2023/09/15 11:00:33;;;;;;;;;;;;;;;22.71;52.42;95825.75;10299989;28;2126;-70
2023/09/15 11:05:33;;;;;;;;;;;;;;;22.71;52.39;95823.09;10317322;28;1990;-71
2023/09/15 11:10:33;;;;;;;;;;;;;;;22.72;52.53;95811.47;10278581;28;2074;-71
2023/09/15 11:15:33;;;;;;;;;;;;;;;22.76;52.86;95807.19;10295030;28;2050;-72
2023/09/15 11:20:34;;;;;;;;;;;;;;;22.79;52.48;95800.56;10280897;28;1938;-71
2023/09/15 11:25:35;;;;;;;;;;;;;;;22.81;52.70;95807.13;10294715;28;1919;-71
2023/09/15 11:30:35;;;;;;;;;;;;;;;22.84;52.59;95803.91;10280931;28;2849;-71
2023/09/15 11:35:36;;;;;;;;;;;;;;;22.85;52.49;95802.84;10277224;28;1915;-71
2023/09/15 11:40:36;;;;;;;;;;;;;;;22.85;52.18;95807.34;10311338;28;4671;-71
2023/09/15 11:45:37;;;;;;;;;;;;;;;22.83;52.55;95797.06;10288076;28;1915;-71
2023/09/15 11:50:37;;;;;;;;;;;;;;;22.85;52.14;95778.28;10287336;28;1883;-71
2023/09/15 11:55:37;;;;;;;;;;;;;;;22.87;52.16;95789.34;10295780;28;2062;-70
2023/09/15 12:00:38;;;;;;;;;;;;;;;22.84;52.08;95776.69;10290246;28;1975;-71
2023/09/15 12:05:40;;;;;;;;;;;;;;;22.84;52.18;95766.91;10275781;28;1985;-71
2023/09/15 12:10:41;;;;;;;;;;;;;;;22.84;51.92;95769.53;10271930;28;1990;-71
2023/09/15 12:15:41;;;;;;;;;;;;;;;22.85;51.65;95767.69;10292086;28;1915;-71
2023/09/15 12:20:45;;;;;;;;;;;;;;;22.86;51.78;95769.25;10290873;28;1974;-71
2023/09/15 12:25:46;;;;;;;;;;;;;;;22.88;52.08;95762.59;10292349;28;2058;-71
2023/09/15 12:30:47;;;;;;;;;;;;;;;22.90;51.81;95759.66;10300144;28;1920;-71
2023/09/15 12:35:48;;;;;;;;;;;;;;;22.91;51.69;95759.41;10276743;28;2870;-71
2023/09/15 12:40:49;;;;;;;;;;;;;;;22.91;51.90;95753.31;10279764;28;1967;-71
2023/09/15 12:45:49;;;;;;;;;;;;;;;22.93;51.99;95753.81;10293572;28;2012;-71
2023/09/15 12:50:49;;;;;;;;;;;;;;;22.94;51.78;95748.25;10279974;28;1977;-71
2023/09/15 12:55:50;;;;;;;;;;;;;;;22.95;51.60;95741.91;10280164;28;2006;-71
2023/09/15 13:00:51;;;;;;;;;;;;;;;22.96;51.66;95742.66;10302305;28;2027;-71
2023/09/15 13:05:52;;;;;;;;;;;;;;;22.96;51.39;95732.88;10311755;28;2069;-72
2023/09/15 13:10:52;;;;;;;;;;;;;;;22.96;51.46;95727.59;10296808;28;1923;-71
2023/09/15 13:15:52;;;;;;;;;;;;;;;22.98;51.65;95719.41;10300189;28;2012;-71
2023/09/15 13:20:53;;;;;;;;;;;;;;;23.01;51.70;95713.50;10294508;28;2861;-70
2023/09/15 13:25:53;;;;;;;;;;;;;;;23.03;51.50;95706.06;10289533;28;1969;-71
2023/09/15 13:30:53;;;;;;;;;;;;;;;23.04;51.40;95712.94;10301933;28;1885;-70
2023/09/15 13:35:53;;;;;;;;;;;;;;;23.03;51.60;95706.06;10301430;28;1925;-70
2023/09/15 13:40:54;;;;;;;;;;;;;;;23.04;51.88;95707.66;10296330;28;4671;-71
2023/09/15 13:45:55;;;;;;;;;;;;;;;23.06;51.81;95702.88;10292345;28;1886;-70
2023/09/15 13:50:55;;;;;;;;;;;;;;;23.08;51.54;95698.06;10288866;28;1915;-70
2023/09/15 13:55:56;;;;;;;;;;;;;;;23.07;51.75;95701.78;10296380;28;1902;-70
2023/09/15 14:00:59;;;;;;;;;;;;;;;23.08;51.66;95698.06;10295647;28;1898;-71
2023/09/15 14:06:00;;;;;;;;;;;;;;;23.08;51.85;95704.13;10297640;28;2453;-71
2023/09/15 14:11:00;;;;;;;;;;;;;;;23.10;51.75;95696.69;10284701;28;2221;-70
2023/09/15 14:16:02;;;;;;;;;;;;;;;23.10;51.70;95690.63;10297344;28;2122;-70
2023/09/15 14:21:02;;;;;;;;;;;;;;;23.13;52.19;95684.75;10314478;28;1986;-70
2023/09/15 14:26:02;;;;;;;;;;;;;;;23.14;52.03;95691.63;10294525;28;1951;-72
2023/09/15 14:31:03;;;;;;;;;;;;;;;23.15;52.16;95677.31;10282022;28;2093;-72
2023/09/15 14:36:03;;;;;;;;;;;;;;;23.15;51.79;95674.66;10301264;28;1973;-71
2023/09/15 14:41:04;;;;;;;;;;;;;;;23.15;51.69;95680.75;10314008;28;4542;-70
2023/09/15 14:46:04;;;;;;;;;;;;;;;23.15;51.42;95679.94;10301323;28;2204;-70
2023/09/15 14:51:04;;;;;;;;;;;;;;;23.13;51.55;95682.91;10320744;28;2404;-70
2023/09/15 14:56:05;;;;;;;;;;;;;;;23.13;51.18;95676.81;10298394;28;2060;-70
2023/09/15 15:01:05;;;;;;;;;;;;;;;23.12;50.91;95672.63;10303471;28;1991;-70
2023/09/15 15:06:05;;;;;;;;;;;;;;;23.11;50.83;95678.97;10316018;28;1963;-70
2023/09/15 15:11:05;;;;;;;;;;;;;;;23.10;51.03;95680.06;10294903;28;2016;-69
2023/09/15 15:16:10;;;;;;;;;;;;;;;23.10;50.86;95680.06;10313759;28;2069;-70
2023/09/15 15:21:10;;;;;;;;;;;;;;;23.10;51.01;95672.88;10297768;28;2001;-70
2023/09/15 15:26:12;;;;;;;;;;;;;;;23.13;50.83;95674.16;10300514;28;1938;-70
2023/09/15 15:31:12;;;;;;;;;;;;;;;23.12;50.77;95665.44;10290581;28;1900;-69
2023/09/15 15:36:13;;;;;;;;;;;;;;;23.10;50.84;95672.13;10277628;28;2131;-70
2023/09/15 15:41:13;;;;;;;;;;;;;;;23.11;50.78;95676.31;10273419;28;4729;-69
2023/09/15 15:46:13;;;;;;;;;;;;;;;23.08;50.30;95672.41;10296694;28;2020;-70
2023/09/15 15:51:14;;;;;;;;;;;;;;;23.07;50.41;95675.34;10287470;28;2539;-69
2023/09/15 15:56:14;;;;;;;;;;;;;;;23.03;50.33;95672.50;10288676;28;1916;-70
2023/09/15 16:01:14;;;;;;;;;;;;;;;23.00;50.06;95670.41;10294039;28;2024;-68
2023/09/15 16:06:14;;;;;;;;;;;;;;;23.01;50.15;95671.22;10276313;28;1903;-69
2023/09/15 16:11:15;;;;;;;;;;;;;;;23.01;50.46;95665.94;10277985;28;1889;-69
2023/09/15 16:16:15;;;;;;;;;;;;;;;23.03;50.25;95671.72;10293540;28;1958;-69
2023/09/15 16:21:15;;;;;;;;;;;;;;;23.00;50.21;95670.41;10312034;28;1906;-69
2023/09/15 16:26:16;;;;;;;;;;;;;;;22.99;50.25;95665.44;10290055;28;1940;-69
2023/09/15 16:31:16;;;;;;;;;;;;;;;22.97;50.44;95663.09;10293849;28;2087;-68
2023/09/15 16:36:16;;;;;;;;;;;;;;;22.98;50.40;95667.28;10306102;28;2076;-69
2023/09/15 16:41:17;;;;;;;;;;;;;;;22.98;50.28;95677.09;10271604;28;4644;-69
2023/09/15 16:46:17;;;;;;;;;;;;;;;22.99;50.44;95671.50;10307186;28;1966;-68
2023/09/15 16:51:17;;;;;;;;;;;;;;;23.01;50.84;95671.22;10286314;28;2654;-70
2023/09/15 16:56:18;;;;;;;;;;;;;;;22.99;50.77;95668.88;10293630;28;1911;-68
2023/09/15 17:01:18;;;;;;;;;;;;;;;23.01;50.74;95684.44;10293755;28;1910;-67
2023/09/15 17:06:18;;;;;;;;;;;;;;;23.01;50.71;95673.84;10293807;28;2705;-69
2023/09/15 17:11:18;;;;;;;;;;;;;;;23.02;51.00;95675.44;10293668;28;1971;-68
2023/09/15 17:16:20;;;;;;;;;;;;;;;23.04;50.87;95678.56;10284567;28;2247;-69
2023/09/15 17:21:20;;;;;;;;;;;;;;;23.06;51.28;95685.13;10292238;28;2080;-67
2023/09/15 17:26:20;;;;;;;;;;;;;;;23.10;51.37;95685.34;10293706;28;2468;-69
2023/09/15 17:31:23;;;;;;;;;;;;;;;23.11;51.38;95684.25;10287372;28;1965;-70
2023/09/15 17:36:23;;;;;;;;;;;;;;;23.12;51.19;95683.94;10316914;28;2006;-70
2023/09/15 17:41:23;;;;;;;;;;;;;;;23.17;51.09;95685.72;10317890;28;4671;-68
2023/09/15 17:46:24;;;;;;;;;;;;;;;23.21;51.16;95686.72;10301681;28;1765;-68
2023/09/15 17:51:24;;;;;;;;;;;;;;;23.25;50.96;95685.06;10305786;28;2892;-69
2023/09/15 17:56:24;;;;;;;;;;;;;;;23.26;50.81;95694.56;10299744;28;1485;-69
2023/09/15 18:01:25;;;;;;;;;;;;;;;23.29;50.64;95688.69;10300649;28;1981;-68
2023/09/15 18:06:25;;;;;;;;;;;;;;;23.30;50.67;95690.28;10283353;28;1952;-68
2023/09/15 18:11:25;;;;;;;;;;;;;;;23.31;50.51;95691.81;10301578;28;1593;-69
2023/09/15 18:16:26;;;;;;;;;;;;;;;23.31;50.53;95691.81;10318321;28;1552;-69
2023/09/15 18:21:26;;;;;;;;;;;;;;;23.32;50.36;95693.44;10298429;28;1924;-68
2023/09/15 18:26:26;;;;;;;;;;;;;;;23.38;50.50;95692.28;10688653;23;2644;-66
2023/09/15 18:31:28;;;;;;;;;;;;;;;23.36;50.58;95695.22;10350751;28;1625;-67
2023/09/15 18:36:28;;;;;;;;;;;;;;;23.37;50.58;95701.25;10375994;28;1972;-66
2023/09/15 18:41:28;;;;;;;;;;;;;;;23.35;50.40;95706.06;10374342;28;4698;-67
2023/09/15 18:46:28;;;;;;;;;;;;;;;23.34;50.52;95707.16;10358800;28;1532;-67
2023/09/15 18:51:29;;;;;;;;;;;;;;;23.39;50.29;95707.84;10377682;28;1925;-69
2023/09/15 18:56:30;;;;;;;;;;;;;;;23.35;50.19;95714.78;10366337;28;1477;-66
2023/09/15 19:01:30;;;;;;;;;;;;;;;23.40;50.16;95706.78;10370561;28;1979;-67
2023/09/15 19:06:30;;;;;;;;;;;;;;;23.42;50.27;95717.84;10368209;28;2422;-67
2023/09/15 19:11:31;;;;;;;;;;;;;;;23.47;50.01;95726.78;10363240;28;1622;-67
2023/09/15 19:16:31;;;;;;;;;;;;;;;23.49;50.24;95728.06;10355053;28;1609;-67
2023/09/15 19:21:31;;;;;;;;;;;;;;;23.50;49.98;95732.25;10356456;28;1918;-66
2023/09/15 19:26:34;;;;;;;;;;;;;;;23.50;50.03;95732.25;10364758;28;1528;-68
2023/09/15 19:31:34;;;;;;;;;;;;;;;23.45;50.16;95730.47;10371841;28;1552;-68
2023/09/15 19:36:34;;;;;;;;;;;;;;;23.47;50.28;95735.50;10369571;28;1820;-68
2023/09/15 19:41:35;;;;;;;;;;;;;;;23.50;50.10;95726.16;10366806;28;4784;-67
2023/09/15 19:46:36;;;;;;;;;;;;;;;23.47;50.13;95732.84;10367611;28;1487;-66
2023/09/15 19:51:37;;;;;;;;;;;;;;;23.47;50.10;95735.50;10378672;28;2448;-67
2023/09/15 19:56:37;;;;;;;;;;;;;;;23.51;50.22;95736.47;10358875;28;1504;-67
2023/09/15 20:01:39;;;;;;;;;;;;;;;23.50;50.27;95726.97;10370277;28;1969;-66
2023/09/15 20:06:40;;;;;;;;;;;;;;;23.51;49.96;95727.75;10370516;28;1732;-67
2023/09/15 20:11:40;;;;;;;;;;;;;;;23.49;49.96;95725.41;10357925;28;1505;-68
2023/09/15 20:16:41;;;;;;;;;;;;;;;23.43;50.12;95716.75;10358577;28;1541;-68
2023/09/15 20:21:41;;;;;;;;;;;;;;;23.43;50.01;95713.34;10363918;28;1910;-67
2023/09/15 20:26:43;;;;;;;;;;;;;;;23.41;49.92;95712.88;10359596;28;1497;-66
2023/09/15 20:31:45;;;;;;;;;;;;;;;23.39;50.00;95710.47;10347265;28;1504;-69
2023/09/15 20:36:45;;;;;;;;;;;;;;;23.41;49.80;95702.28;10366956;28;2412;-71
2023/09/15 20:41:45;;;;;;;;;;;;;;;23.37;49.89;95696.75;10364075;28;4702;-68
2023/09/15 20:46:45;;;;;;;;;;;;;;;23.36;49.81;95689.13;10369590;28;1545;-67
2023/09/15 20:51:46;;;;;;;;;;;;;;;23.35;49.92;95692.84;10362862;28;1730;-68
2023/09/15 20:56:46;;;;;;;;;;;;;;;23.39;49.75;95685.88;10339014;28;1642;-71
2023/09/15 21:01:46;;;;;;;;;;;;;;;23.36;49.93;95679.34;10342937;28;1983;-68
2023/09/15 21:06:50;;;;;;;;;;;;;;;23.35;49.88;95682.25;10359025;28;1937;-68
2023/09/15 21:11:50;;;;;;;;;;;;;;;23.33;50.07;95690.50;10363102;28;1920;-69
2023/09/15 21:16:50;;;;;;;;;;;;;;;23.35;49.74;95687.53;10362765;28;2214;-67
2023/09/15 21:21:51;;;;;;;;;;;;;;;23.31;49.93;95683.88;10349314;28;2472;-67
2023/09/15 21:26:51;;;;;;;;;;;;;;;23.28;49.77;95690.56;10362230;28;2032;-68
2023/09/15 21:31:51;;;;;;;;;;;;;;;23.25;50.00;95690.34;10368621;28;1837;-68
2023/09/15 21:36:52;;;;;;;;;;;;;;;23.21;50.04;95698.09;10370413;28;1956;-67
2023/09/15 21:41:52;;;;;;;;;;;;;;;23.19;49.98;95697.59;10363816;28;4730;-67
2023/09/15 21:46:52;;;;;;;;;;;;;;;23.16;49.90;95684.19;10347768;28;1847;-67
2023/09/15 21:51:52;;;;;;;;;;;;;;;23.14;50.03;95691.63;10376650;28;1765;-67
2023/09/15 21:56:53;;;;;;;;;;;;;;;23.12;50.21;95691.13;10365091;28;1896;-67
2023/09/15 22:01:54;;;;;;;;;;;;;;;23.11;50.06;95698.25;10354135;28;1927;-67
2023/09/15 22:06:54;;;;;;;;;;;;;;;23.10;50.25;95688.00;10368788;28;1905;-67
2023/09/15 22:11:55;;;;;;;;;;;;;;;23.09;50.38;95684.56;10363111;28;1837;-67
2023/09/15 22:16:55;;;;;;;;;;;;;;;23.08;50.48;95690.13;10342953;28;1957;-67
2023/09/15 22:21:56;;;;;;;;;;;;;;;23.06;50.13;95684.34;10341713;28;2560;-67
2023/09/15 22:26:57;;;;;;;;;;;;;;;23.03;50.12;95669.06;10351348;28;1839;-68
2023/09/15 22:31:57;;;;;;;;;;;;;;;23.02;50.26;95667.50;10360650;28;1758;-67
2023/09/15 22:37:01;;;;;;;;;;;;;;;23.01;50.20;95655.34;10353901;28;1872;-67
2023/09/15 22:42:05;;;;;;;;;;;;;;;23.01;50.41;95650.06;10361491;28;4638;-68
2023/09/15 22:47:08;;;;;;;;;;;;;;;22.99;50.38;95650.38;10349949;28;1866;-67
2023/09/15 22:52:08;;;;;;;;;;;;;;;22.99;50.20;95647.72;10367146;28;1841;-66
2023/09/15 22:57:09;;;;;;;;;;;;;;;22.99;50.33;95654.84;10329180;28;1930;-66
2023/09/15 23:02:09;;;;;;;;;;;;;;;23.00;50.35;95649.28;10362000;28;1918;-66
2023/09/15 23:07:10;;;;;;;;;;;;;;;22.99;50.36;95652.22;10375117;28;2572;-66
2023/09/15 23:12:11;;;;;;;;;;;;;;;22.96;50.43;95643.00;10378516;28;1543;-66
2023/09/15 23:17:11;;;;;;;;;;;;;;;22.96;50.30;95635.06;10342546;28;1717;-67
2023/09/15 23:22:11;;;;;;;;;;;;;;;22.94;50.31;95631.94;10374461;28;1969;-67
2023/09/15 23:27:12;;;;;;;;;;;;;;;22.93;50.40;95632.22;10377890;28;1461;-66
2023/09/15 23:32:12;;;;;;;;;;;;;;;22.93;50.23;95632.22;10362789;28;1557;-66
2023/09/15 23:37:14;;;;;;;;;;;;;;;22.90;50.07;95628.31;10369641;28;1904;-68
2023/09/15 23:42:14;;;;;;;;;;;;;;;22.91;50.21;95623.81;10341452;28;1909;-67
2023/09/15 23:47:16;;;;;;;;;;;;;;;22.92;50.18;95626.16;10370344;28;1469;-67
2023/09/15 23:52:18;;;;;;;;;;;;;;;22.92;50.34;95628.00;10363165;28;2826;-67
2023/09/15 23:57:19;;;;;;;;;;;;;;;22.90;50.19;95633.59;10368541;28;1425;-67
